Terminal Aerodrome Forecast
Issued by NWS

Home | Current Version | Previous Version | Text Only | Print | Product List | Glossary On
Versions: 1 2 3 4 5 6 7 8 9 10 11 12 13 14 15 16 17 18
000
FTUS42 KMLB 052334
TAFSFB
TAF
KSFB 052334Z 0600/0624 25011KT P6SM FEW050 BKN080 BKN250
     FM060600 VRB04KT P6SM BKN035
     FM060900 35009KT P6SM SCT007 BKN015 OVC035
      TEMPO 0609/0612 5SM BR SCT005 BKN010
     FM062200 01014G20KT P6SM SCT015 BKN025=

USA.gov is the U.S. government's official web portal to all federal, state and local government web resources and services.